createdAt,value
2023-09-28T00:00:23.556Z,7.33
2023-09-28T00:00:55.542Z,7.00
2023-09-28T00:01:28.268Z,6.73
2023-09-28T00:02:00.614Z,6.83
2023-09-28T00:02:36.204Z,7.07
2023-09-28T00:03:09.864Z,7.50
2023-09-28T00:03:41.912Z,7.13
2023-09-28T00:04:13.872Z,6.93
2023-09-28T00:04:45.860Z,6.40
2023-09-28T00:05:17.947Z,6.93
2023-09-28T00:05:50.424Z,6.83
2023-09-28T00:06:22.355Z,7.17
2023-09-28T00:06:54.254Z,7.17
2023-09-28T00:07:26.199Z,6.93
2023-09-28T00:07:59.521Z,6.47
2023-09-28T00:08:31.492Z,6.90
2023-09-28T00:09:04.556Z,7.27
2023-09-28T00:09:36.418Z,6.80
2023-09-28T00:10:13.569Z,6.90
2023-09-28T00:10:45.737Z,7.63
2023-09-28T00:11:17.661Z,7.57
2023-09-28T00:11:49.628Z,7.30
2023-09-28T00:12:21.600Z,7.10
2023-09-28T00:12:55.008Z,7.40
2023-09-28T00:13:26.987Z,6.90
2023-09-28T00:13:58.936Z,7.27
2023-09-28T00:14:30.885Z,7.33
2023-09-28T00:15:02.833Z,7.13
2023-09-28T00:15:34.861Z,6.83
2023-09-28T00:16:06.880Z,7.13
2023-09-28T00:16:39.003Z,6.80
2023-09-28T00:17:11.200Z,6.93
2023-09-28T00:17:44.001Z,7.30
2023-09-28T00:18:16.428Z,6.77
2023-09-28T00:18:48.447Z,7.07
2023-09-28T00:19:20.338Z,6.93
2023-09-28T00:19:52.261Z,6.97
2023-09-28T00:20:24.639Z,7.47
2023-09-28T00:20:57.593Z,7.10
2023-09-28T00:21:29.824Z,6.93
2023-09-28T00:22:01.757Z,7.23
2023-09-28T00:22:34.120Z,7.03
2023-09-28T00:23:06.064Z,7.00
2023-09-28T00:23:38.011Z,7.37
2023-09-28T00:24:11.046Z,7.07
2023-09-28T00:24:43.932Z,7.07
2023-09-28T00:25:17.697Z,7.20
2023-09-28T00:25:49.728Z,7.17
2023-09-28T00:26:21.797Z,7.57
2023-09-28T00:26:53.950Z,6.97
2023-09-28T00:27:26.866Z,6.73
2023-09-28T00:27:58.809Z,7.03
2023-09-28T00:28:31.752Z,7.43
2023-09-28T00:29:04.476Z,6.83
2023-09-28T00:29:36.419Z,6.83
2023-09-28T00:30:19.731Z,6.70
2023-09-28T00:30:51.715Z,7.13
2023-09-28T00:31:23.809Z,7.33
2023-09-28T00:31:56.903Z,7.47
2023-09-28T00:32:28.817Z,7.13
2023-09-28T00:33:00.778Z,7.00
2023-09-28T00:33:32.652Z,7.20
2023-09-28T00:34:04.588Z,7.17
2023-09-28T00:34:36.568Z,6.97
2023-09-28T00:35:09.211Z,6.90
2023-09-28T00:35:41.182Z,7.33
2023-09-28T00:36:13.124Z,7.63
2023-09-28T00:36:45.096Z,7.57
2023-09-28T00:37:16.928Z,7.03
2023-09-28T00:37:49.918Z,6.80
2023-09-28T00:38:22.014Z,7.20
2023-09-28T00:38:53.882Z,7.50
2023-09-28T00:39:25.864Z,7.53
2023-09-28T00:39:58.052Z,7.30
2023-09-28T00:40:32.831Z,6.57
2023-09-28T00:41:05.779Z,7.23
2023-09-28T00:41:37.748Z,7.20
2023-09-28T00:42:09.702Z,7.70
2023-09-28T00:42:41.645Z,6.93
2023-09-28T00:43:13.592Z,7.67
2023-09-28T00:43:46.124Z,7.60
2023-09-28T00:44:19.115Z,7.47
2023-09-28T00:44:52.446Z,7.23
2023-09-28T00:45:25.672Z,7.00
2023-09-28T00:45:57.913Z,7.70
2023-09-28T00:46:34.586Z,8.13
2023-09-28T00:47:07.027Z,7.47
2023-09-28T00:47:42.866Z,7.70
2023-09-28T00:48:15.149Z,7.03
2023-09-28T00:49:04.900Z,6.80
2023-09-28T00:49:37.870Z,6.97
2023-09-28T00:50:18.662Z,7.43
2023-09-28T00:50:52.885Z,7.53
2023-09-28T00:51:27.443Z,7.40
2023-09-28T00:52:00.763Z,7.37
2023-09-28T00:52:34.899Z,7.03
2023-09-28T00:53:09.487Z,7.53
2023-09-28T00:53:42.152Z,7.23
2023-09-28T00:54:15.055Z,7.07
2023-09-28T00:54:49.913Z,8.33
2023-09-28T00:55:24.232Z,7.63
2023-09-28T00:55:57.607Z,7.60
2023-09-28T00:56:30.972Z,6.97
2023-09-28T00:57:03.388Z,7.50
2023-09-28T00:57:36.613Z,7.30
2023-09-28T00:58:11.137Z,7.40
2023-09-28T00:58:43.540Z,7.37
2023-09-28T00:59:16.241Z,7.27
2023-09-28T00:59:48.187Z,7.50
2023-09-28T01:00:22.254Z,7.03
2023-09-28T01:00:54.300Z,7.23
2023-09-28T01:01:30.283Z,6.73
2023-09-28T01:02:02.263Z,7.17
2023-09-28T01:02:34.343Z,6.57
2023-09-28T01:03:10.863Z,7.17
2023-09-28T01:03:43.830Z,7.47
2023-09-28T01:04:15.747Z,7.53
2023-09-28T01:04:49.337Z,7.83
2023-09-28T01:05:28.018Z,7.90
2023-09-28T01:05:59.978Z,7.17
2023-09-28T01:06:32.456Z,6.97
2023-09-28T01:07:05.741Z,7.20
2023-09-28T01:07:37.733Z,7.40
2023-09-28T01:08:13.241Z,7.27
2023-09-28T01:08:45.267Z,7.13
2023-09-28T01:09:17.249Z,7.17
2023-09-28T01:09:49.232Z,7.57
2023-09-28T01:10:27.219Z,7.37
2023-09-28T01:10:59.264Z,7.73
2023-09-28T01:11:31.228Z,7.13
2023-09-28T01:12:04.622Z,7.57
2023-09-28T01:12:39.783Z,7.43
2023-09-28T01:13:14.338Z,7.57
2023-09-28T01:13:46.394Z,7.07
2023-09-28T01:14:18.718Z,6.80
2023-09-28T01:14:54.808Z,7.07
2023-09-28T01:15:26.995Z,7.10
2023-09-28T01:15:59.251Z,8.03
2023-09-28T01:16:31.362Z,8.07
2023-09-28T01:17:04.577Z,7.40
2023-09-28T01:17:37.724Z,7.30
2023-09-28T01:18:13.974Z,7.33
2023-09-28T01:18:45.975Z,7.23
2023-09-28T01:19:17.912Z,6.67
2023-09-28T01:19:49.903Z,7.53
2023-09-28T01:20:35.838Z,7.17
2023-09-28T01:21:08.088Z,7.03
2023-09-28T01:21:41.215Z,6.60
2023-09-28T01:22:15.363Z,6.77
2023-09-28T01:22:50.426Z,6.57
2023-09-28T01:23:22.465Z,7.47
2023-09-28T01:23:54.608Z,7.27
2023-09-28T01:24:26.607Z,7.90
2023-09-28T01:24:59.006Z,7.70
2023-09-28T01:25:30.877Z,6.97
2023-09-28T01:26:03.307Z,6.77
2023-09-28T01:26:35.805Z,7.00
2023-09-28T01:27:07.948Z,7.43
2023-09-28T01:27:45.301Z,7.87
2023-09-28T01:28:20.325Z,7.20
2023-09-28T01:28:52.249Z,7.60
2023-09-28T01:29:24.198Z,7.60
2023-09-28T01:29:56.157Z,7.60
2023-09-28T01:30:29.029Z,7.37
2023-09-28T01:31:01.002Z,7.63
2023-09-28T01:31:33.907Z,7.43
2023-09-28T01:32:05.912Z,7.57
2023-09-28T01:32:37.832Z,7.43
2023-09-28T01:33:10.759Z,7.33
2023-09-28T01:33:44.026Z,7.63
2023-09-28T01:34:16.059Z,7.53
2023-09-28T01:34:47.999Z,7.57
2023-09-28T01:35:20.415Z,7.40
2023-09-28T01:35:52.353Z,6.87
2023-09-28T01:36:24.260Z,7.40
2023-09-28T01:36:56.170Z,7.93
2023-09-28T01:37:57.612Z,7.40
2023-09-28T01:38:49.665Z,7.40
2023-09-28T01:39:22.015Z,6.83
2023-09-28T01:39:53.927Z,6.87
2023-09-28T01:40:25.853Z,7.53
2023-09-28T01:40:58.791Z,8.07
2023-09-28T01:41:30.755Z,7.33
2023-09-28T01:42:02.662Z,7.00
2023-09-28T01:42:34.538Z,7.20
2023-09-28T01:43:07.393Z,6.60
2023-09-28T01:43:39.394Z,6.77
2023-09-28T01:44:12.384Z,6.77
2023-09-28T01:44:44.314Z,7.00
2023-09-28T01:45:16.633Z,6.93
2023-09-28T01:45:49.034Z,6.73
2023-09-28T01:46:21.006Z,7.23
2023-09-28T01:46:52.961Z,7.83
2023-09-28T01:47:25.027Z,8.13
2023-09-28T01:47:57.076Z,8.53
2023-09-28T01:48:29.047Z,8.07
2023-09-28T01:49:01.040Z,7.70
2023-09-28T01:49:32.963Z,7.60
2023-09-28T01:50:05.345Z,7.20
2023-09-28T01:50:37.347Z,6.73
2023-09-28T01:51:09.293Z,7.13
2023-09-28T01:51:41.283Z,7.07
2023-09-28T01:52:13.205Z,7.50
2023-09-28T01:52:45.284Z,7.23
2023-09-28T01:53:17.197Z,7.30
2023-09-28T01:53:49.162Z,7.30
2023-09-28T01:54:21.180Z,7.10
2023-09-28T01:54:53.221Z,8.10
2023-09-28T01:55:25.333Z,8.50
2023-09-28T01:56:00.515Z,7.87
2023-09-28T01:56:32.487Z,7.23
2023-09-28T01:57:04.569Z,6.83
2023-09-28T01:57:37.105Z,6.47
2023-09-28T01:58:09.423Z,7.27
2023-09-28T01:58:42.391Z,7.17
2023-09-28T01:59:15.736Z,7.80
2023-09-28T01:59:47.855Z,7.63
2023-09-28T02:00:21.487Z,7.33
2023-09-28T02:00:53.659Z,7.53
2023-09-28T02:01:30.055Z,7.17
2023-09-28T02:02:02.719Z,6.70
2023-09-28T02:02:35.998Z,7.17
2023-09-28T02:03:10.402Z,6.87
2023-09-28T02:03:42.416Z,6.70
2023-09-28T02:04:14.320Z,7.13
2023-09-28T02:04:46.283Z,6.83
2023-09-28T02:05:19.918Z,7.63
2023-09-28T02:05:51.849Z,7.43
2023-09-28T02:06:24.164Z,7.43
2023-09-28T02:06:56.749Z,6.80
2023-09-28T02:07:28.929Z,7.43
2023-09-28T02:08:01.882Z,7.13
2023-09-28T02:08:35.599Z,7.40
2023-09-28T02:09:07.641Z,7.20
2023-09-28T02:09:39.636Z,7.10
2023-09-28T02:10:12.227Z,6.47
2023-09-28T02:10:44.261Z,7.17
2023-09-28T02:11:16.395Z,7.57
2023-09-28T02:11:48.392Z,6.93
2023-09-28T02:12:20.839Z,6.87
2023-09-28T02:12:53.018Z,6.70
2023-09-28T02:13:24.903Z,6.90
2023-09-28T02:13:56.869Z,7.13
2023-09-28T02:14:29.116Z,7.40
2023-09-28T02:15:05.788Z,7.60
2023-09-28T02:15:38.409Z,7.53
2023-09-28T02:16:11.816Z,7.27
2023-09-28T02:16:44.176Z,7.37
2023-09-28T02:17:16.209Z,7.10
2023-09-28T02:17:48.412Z,7.50
2023-09-28T02:18:20.852Z,7.13
2023-09-28T02:18:52.828Z,7.10
2023-09-28T02:19:24.774Z,7.00
2023-09-28T02:19:56.852Z,7.07
2023-09-28T02:20:31.334Z,7.13
2023-09-28T02:21:04.225Z,6.73
2023-09-28T02:21:36.100Z,6.90
2023-09-28T02:22:10.406Z,7.03
2023-09-28T02:22:48.130Z,6.87
2023-09-28T02:23:20.762Z,6.67
2023-09-28T02:23:53.235Z,5.87
2023-09-28T02:24:25.472Z,6.80
2023-09-28T02:24:57.455Z,6.90
2023-09-28T02:25:30.731Z,6.87
2023-09-28T02:26:07.654Z,6.87
2023-09-28T02:26:40.077Z,6.90
2023-09-28T02:27:11.952Z,7.10
2023-09-28T02:27:44.120Z,7.23
2023-09-28T02:28:16.114Z,6.47
2023-09-28T02:28:48.919Z,7.30
2023-09-28T02:29:20.965Z,6.53
2023-09-28T02:29:53.368Z,7.23
2023-09-28T02:30:26.277Z,7.27
2023-09-28T02:31:05.988Z,6.87
2023-09-28T02:31:44.080Z,6.93
2023-09-28T02:32:16.200Z,6.93
2023-09-28T02:32:51.281Z,7.50
2023-09-28T02:33:23.331Z,7.03
2023-09-28T02:33:57.469Z,7.03
2023-09-28T02:34:29.479Z,7.60
2023-09-28T02:35:01.733Z,7.57
2023-09-28T02:35:33.911Z,7.27
2023-09-28T02:36:06.188Z,7.20
2023-09-28T02:36:38.081Z,6.83
2023-09-28T02:37:10.026Z,7.47
2023-09-28T02:37:44.081Z,7.00
2023-09-28T02:38:16.031Z,7.07
2023-09-28T02:38:48.560Z,7.43
2023-09-28T02:39:20.516Z,7.47
2023-09-28T02:39:52.396Z,7.07
2023-09-28T02:40:25.359Z,6.90
2023-09-28T02:40:57.380Z,7.07
2023-09-28T02:41:29.322Z,7.57
2023-09-28T02:42:01.524Z,6.97
2023-09-28T02:42:35.021Z,7.17
2023-09-28T02:43:06.943Z,6.43
2023-09-28T02:43:38.869Z,6.40
2023-09-28T02:44:10.865Z,6.90
2023-09-28T02:44:42.884Z,7.53
2023-09-28T02:45:15.314Z,7.13
2023-09-28T02:45:47.398Z,6.73
2023-09-28T02:46:19.387Z,7.50
2023-09-28T02:46:51.673Z,7.73
2023-09-28T02:47:23.854Z,7.53
2023-09-28T02:47:56.104Z,7.03
2023-09-28T02:48:28.818Z,6.67
2023-09-28T02:49:00.834Z,7.37
2023-09-28T02:49:35.612Z,6.97
2023-09-28T02:50:11.363Z,7.30
2023-09-28T02:50:44.109Z,6.97
2023-09-28T02:51:15.981Z,6.80
2023-09-28T02:51:48.062Z,6.87
2023-09-28T02:52:20.371Z,7.03
2023-09-28T02:52:53.982Z,6.83
2023-09-28T02:53:26.403Z,7.17
2023-09-28T02:53:59.656Z,6.80
2023-09-28T02:54:31.728Z,7.20
2023-09-28T02:55:05.633Z,6.83
2023-09-28T02:55:38.396Z,6.97
2023-09-28T02:56:10.327Z,6.37
2023-09-28T02:56:43.772Z,6.47
2023-09-28T02:57:15.773Z,6.83
2023-09-28T02:57:48.836Z,6.50
2023-09-28T02:58:23.384Z,7.53
2023-09-28T02:58:56.314Z,6.87
2023-09-28T02:59:28.992Z,7.13
2023-09-28T03:00:01.850Z,6.57
2023-09-28T03:00:34.624Z,6.80
2023-09-28T03:01:06.732Z,7.00
2023-09-28T03:01:39.368Z,6.63
2023-09-28T03:02:15.227Z,6.80
2023-09-28T03:02:48.027Z,6.77
2023-09-28T03:03:20.049Z,6.87
2023-09-28T03:03:52.316Z,7.13
2023-09-28T03:04:25.402Z,6.67
2023-09-28T03:04:58.322Z,7.40
2023-09-28T03:05:30.427Z,6.97
2023-09-28T03:06:02.309Z,6.73
2023-09-28T03:06:38.739Z,6.93
2023-09-28T03:07:10.615Z,6.23
2023-09-28T03:07:42.526Z,7.50
2023-09-28T03:08:15.802Z,7.43
2023-09-28T03:08:48.390Z,6.20
2023-09-28T03:09:21.247Z,6.43
2023-09-28T03:09:53.246Z,6.87
2023-09-28T03:10:26.303Z,6.83
2023-09-28T03:10:59.605Z,6.63
2023-09-28T03:11:31.585Z,6.37
2023-09-28T03:12:04.778Z,6.43
2023-09-28T03:12:37.331Z,6.57
2023-09-28T03:13:10.112Z,7.13
2023-09-28T03:13:42.033Z,6.40
2023-09-28T03:14:14.007Z,6.00
2023-09-28T03:14:46.096Z,6.93
2023-09-28T03:15:19.343Z,6.57
2023-09-28T03:15:51.289Z,6.43
2023-09-28T03:16:23.265Z,6.37
2023-09-28T03:16:56.050Z,6.67
2023-09-28T03:17:29.557Z,6.70
2023-09-28T03:18:01.522Z,6.73
2023-09-28T03:18:33.786Z,6.43
2023-09-28T03:19:05.682Z,6.30
2023-09-28T03:19:37.653Z,6.27
2023-09-28T03:20:17.002Z,6.23
2023-09-28T03:20:49.424Z,6.50
2023-09-28T03:21:21.297Z,7.17
2023-09-28T03:21:54.861Z,6.70
2023-09-28T03:22:26.760Z,6.33
2023-09-28T03:22:58.782Z,6.30
2023-09-28T03:23:30.704Z,6.90
2023-09-28T03:24:02.792Z,7.00
2023-09-28T03:24:34.752Z,6.50
2023-09-28T03:25:11.666Z,6.80
2023-09-28T03:25:44.388Z,6.33
2023-09-28T03:26:16.452Z,6.70
2023-09-28T03:26:56.915Z,7.07
2023-09-28T03:27:41.381Z,6.30
2023-09-28T03:28:14.448Z,6.63
2023-09-28T03:28:46.362Z,6.57
2023-09-28T03:29:18.482Z,6.43
2023-09-28T03:29:51.289Z,6.63
2023-09-28T03:30:24.826Z,6.97
2023-09-28T03:30:56.740Z,7.40
2023-09-28T03:31:28.871Z,7.00
2023-09-28T03:32:01.117Z,6.23
2023-09-28T03:32:33.266Z,6.90
2023-09-28T03:33:05.462Z,6.37
2023-09-28T03:33:37.397Z,7.37
2023-09-28T03:34:09.780Z,7.27
2023-09-28T03:34:41.782Z,7.47
2023-09-28T03:35:14.310Z,6.97
2023-09-28T03:35:46.243Z,6.83
2023-09-28T03:36:18.237Z,7.07
2023-09-28T03:36:50.186Z,6.67
2023-09-28T03:37:22.113Z,6.70
2023-09-28T03:37:58.964Z,6.70
2023-09-28T03:38:31.105Z,6.40
2023-09-28T03:39:04.012Z,6.63
2023-09-28T03:39:35.921Z,6.13
2023-09-28T03:40:12.937Z,6.20
2023-09-28T03:40:45.737Z,6.57
2023-09-28T03:41:18.584Z,6.73
2023-09-28T03:41:51.195Z,6.57
2023-09-28T03:42:23.116Z,6.50
2023-09-28T03:42:55.046Z,6.07
2023-09-28T03:43:26.965Z,5.97
2023-09-28T03:43:58.915Z,7.17
2023-09-28T03:44:30.804Z,6.50
2023-09-28T03:45:09.881Z,6.63
2023-09-28T03:45:42.752Z,7.10
2023-09-28T03:46:19.492Z,6.57
2023-09-28T03:46:51.453Z,6.73
2023-09-28T03:47:23.374Z,6.37
2023-09-28T03:47:55.805Z,6.63
2023-09-28T03:48:27.985Z,7.07
2023-09-28T03:48:59.913Z,6.97
2023-09-28T03:49:31.958Z,6.60
2023-09-28T03:50:05.453Z,6.60
2023-09-28T03:50:37.709Z,6.00
2023-09-28T03:51:10.127Z,6.07
2023-09-28T03:51:42.181Z,6.33
2023-09-28T03:52:14.121Z,6.63
2023-09-28T03:52:46.122Z,6.47
2023-09-28T03:53:18.405Z,6.57
2023-09-28T03:53:50.326Z,6.13
2023-09-28T03:54:22.233Z,6.27
2023-09-28T03:54:54.124Z,6.77
2023-09-28T03:55:26.193Z,10.17
2023-09-28T03:55:58.281Z,11.70
2023-09-28T03:56:30.224Z,8.63
2023-09-28T03:57:02.205Z,6.93
2023-09-28T03:57:34.167Z,6.93
2023-09-28T03:58:06.067Z,7.23
2023-09-28T03:58:38.114Z,6.97
2023-09-28T03:59:10.133Z,6.80
2023-09-28T03:59:42.087Z,6.97
2023-09-28T04:00:16.894Z,7.03
2023-09-28T04:00:49.821Z,7.03
2023-09-28T04:01:21.805Z,6.37
2023-09-28T04:01:53.848Z,7.37
2023-09-28T04:02:29.224Z,6.63
2023-09-28T04:03:01.265Z,7.07
2023-09-28T04:03:33.225Z,7.20
2023-09-28T04:04:06.332Z,6.97
2023-09-28T04:04:38.727Z,6.37
2023-09-28T04:05:10.806Z,6.83
2023-09-28T04:05:42.784Z,6.77
2023-09-28T04:06:14.925Z,13.70
2023-09-28T04:06:46.861Z,8.10
2023-09-28T04:07:19.072Z,6.80
2023-09-28T04:07:51.337Z,5.80
2023-09-28T04:08:24.325Z,6.50
2023-09-28T04:08:56.775Z,6.40
2023-09-28T04:09:28.669Z,6.60
2023-09-28T04:10:00.785Z,6.77
2023-09-28T04:10:34.749Z,6.97
2023-09-28T04:11:06.719Z,6.47
2023-09-28T04:11:38.830Z,6.70
2023-09-28T04:12:10.802Z,6.63
2023-09-28T04:12:42.761Z,6.87
2023-09-28T04:13:14.657Z,6.53
2023-09-28T04:13:46.550Z,6.60
2023-09-28T04:14:18.465Z,6.20
2023-09-28T04:14:50.762Z,6.50
2023-09-28T04:15:24.276Z,6.33
2023-09-28T04:15:56.996Z,6.53
2023-09-28T04:16:29.023Z,6.50
2023-09-28T04:17:01.010Z,6.47
2023-09-28T04:17:35.572Z,6.40
2023-09-28T04:18:09.122Z,6.63
2023-09-28T04:18:41.179Z,6.27
2023-09-28T04:19:13.083Z,6.50
2023-09-28T04:19:45.071Z,6.30
2023-09-28T04:20:17.696Z,6.20
2023-09-28T04:20:49.857Z,6.23
2023-09-28T04:21:21.790Z,6.77
2023-09-28T04:21:53.712Z,6.53
2023-09-28T04:22:25.629Z,6.73
2023-09-28T04:22:57.610Z,6.67
2023-09-28T04:23:29.606Z,7.00
2023-09-28T04:24:01.565Z,6.80
2023-09-28T04:24:33.582Z,6.43
2023-09-28T04:25:05.827Z,6.40
2023-09-28T04:25:37.800Z,6.63
2023-09-28T04:26:10.176Z,7.10
2023-09-28T04:26:42.342Z,6.70
2023-09-28T04:27:14.258Z,5.93
2023-09-28T04:27:46.443Z,6.17
2023-09-28T04:28:18.863Z,6.23
2023-09-28T04:28:50.907Z,6.70
2023-09-28T04:29:22.884Z,6.43
2023-09-28T04:29:55.978Z,6.63
2023-09-28T04:30:28.689Z,6.80
2023-09-28T04:31:00.952Z,7.83
2023-09-28T04:31:32.927Z,7.60
2023-09-28T04:32:05.511Z,6.97
2023-09-28T04:32:37.720Z,7.63
2023-09-28T04:33:09.910Z,6.63
2023-09-28T04:33:41.839Z,6.57
2023-09-28T04:34:14.505Z,6.80
2023-09-28T04:34:46.563Z,6.27
2023-09-28T04:35:18.733Z,7.03
2023-09-28T04:35:51.443Z,6.77
2023-09-28T04:36:23.528Z,6.87
2023-09-28T04:36:55.405Z,6.90
2023-09-28T04:37:27.398Z,7.03
2023-09-28T04:37:59.339Z,6.67
2023-09-28T04:38:31.240Z,6.13
2023-09-28T04:39:05.474Z,6.07
2023-09-28T04:39:37.417Z,45.60
2023-09-28T04:40:11.419Z,44.93
2023-09-28T04:40:43.389Z,22.23
2023-09-28T04:41:15.306Z,11.77
2023-09-28T04:41:47.640Z,8.57
2023-09-28T04:42:21.681Z,6.93
2023-09-28T04:42:54.648Z,8.03
2023-09-28T04:43:26.517Z,7.13
2023-09-28T04:43:59.416Z,7.00
2023-09-28T04:44:31.622Z,6.97
2023-09-28T04:45:04.355Z,6.97
2023-09-28T04:45:36.367Z,6.40
2023-09-28T04:46:08.450Z,6.53
2023-09-28T04:46:40.438Z,6.60
2023-09-28T04:47:12.849Z,6.53
2023-09-28T04:47:44.932Z,7.93
2023-09-28T04:48:17.016Z,8.23
2023-09-28T04:48:48.919Z,9.07
2023-09-28T04:49:21.072Z,10.03
2023-09-28T04:49:53.033Z,9.10
2023-09-28T04:50:24.937Z,8.57
2023-09-28T04:50:56.792Z,7.77
2023-09-28T04:51:30.297Z,7.57
2023-09-28T04:52:02.252Z,7.73
2023-09-28T04:52:34.148Z,7.20
2023-09-28T04:53:06.191Z,6.93
2023-09-28T04:53:38.142Z,6.43
2023-09-28T04:54:10.779Z,6.80
2023-09-28T04:54:43.586Z,6.73
2023-09-28T04:55:15.729Z,6.43
2023-09-28T04:55:47.655Z,6.90
2023-09-28T04:56:19.857Z,7.70
2023-09-28T04:56:51.795Z,7.13
2023-09-28T04:57:26.089Z,6.23
2023-09-28T04:57:57.972Z,6.90
2023-09-28T04:58:29.892Z,6.87
2023-09-28T04:59:01.888Z,6.40
2023-09-28T04:59:40.796Z,6.30
2023-09-28T05:00:17.950Z,5.93
2023-09-28T05:00:49.922Z,6.90
2023-09-28T05:01:22.650Z,6.90
2023-09-28T05:01:54.630Z,6.67
2023-09-28T05:02:27.846Z,6.67
2023-09-28T05:03:02.741Z,6.97
2023-09-28T05:03:35.154Z,6.43
2023-09-28T05:04:12.147Z,6.27
2023-09-28T05:04:44.565Z,7.17
2023-09-28T05:05:17.150Z,6.23
2023-09-28T05:05:50.261Z,6.07
2023-09-28T05:06:22.394Z,5.83
2023-09-28T05:06:54.438Z,6.03
2023-09-28T05:07:26.386Z,5.77
2023-09-28T05:07:58.372Z,5.87
2023-09-28T05:08:30.277Z,5.90
2023-09-28T05:09:02.264Z,6.37
2023-09-28T05:09:35.672Z,6.80
2023-09-28T05:10:09.325Z,6.13
2023-09-28T05:10:41.414Z,6.23
2023-09-28T05:11:13.457Z,6.37
2023-09-28T05:11:45.536Z,6.27
2023-09-28T05:12:17.913Z,6.53
2023-09-28T05:12:49.815Z,6.67
2023-09-28T05:13:24.405Z,6.57
2023-09-28T05:13:56.462Z,6.53
2023-09-28T05:14:28.971Z,6.20
2023-09-28T05:15:01.068Z,6.57
2023-09-28T05:15:33.800Z,6.60
2023-09-28T05:16:05.794Z,6.50
2023-09-28T05:16:37.800Z,6.43
2023-09-28T05:17:09.859Z,6.27
2023-09-28T05:17:42.535Z,6.73
2023-09-28T05:18:14.461Z,6.63
2023-09-28T05:18:47.271Z,5.97
2023-09-28T05:19:19.546Z,6.57
2023-09-28T05:19:51.695Z,6.10
2023-09-28T05:20:26.146Z,6.00
2023-09-28T05:20:58.367Z,6.67
2023-09-28T05:21:30.325Z,6.60
2023-09-28T05:22:02.610Z,6.60
2023-09-28T05:22:34.682Z,5.43
2023-09-28T05:23:07.398Z,6.10
2023-09-28T05:23:39.567Z,6.30
2023-09-28T05:24:11.566Z,6.27
2023-09-28T05:24:43.540Z,6.77
2023-09-28T05:25:16.001Z,6.97
2023-09-28T05:25:47.934Z,6.90
2023-09-28T05:26:19.950Z,6.87
2023-09-28T05:26:51.896Z,7.07
2023-09-28T05:27:23.867Z,6.47
2023-09-28T05:27:55.735Z,6.20
2023-09-28T05:28:27.751Z,6.43
2023-09-28T05:29:00.103Z,6.60
2023-09-28T05:29:32.060Z,6.07
2023-09-28T05:30:06.016Z,6.63
2023-09-28T05:30:38.837Z,6.77
2023-09-28T05:31:11.019Z,6.53
2023-09-28T05:31:43.480Z,6.53
2023-09-28T05:32:15.456Z,7.13
2023-09-28T05:32:47.563Z,6.97
2023-09-28T05:33:19.780Z,6.37
2023-09-28T05:33:51.720Z,6.03
2023-09-28T05:34:23.823Z,6.10
2023-09-28T05:34:55.796Z,6.27
2023-09-28T05:35:27.841Z,6.00
2023-09-28T05:35:59.862Z,6.43
2023-09-28T05:36:31.769Z,6.07
2023-09-28T05:37:04.389Z,6.47
2023-09-28T05:37:36.688Z,6.87
2023-09-28T05:38:08.719Z,7.97
2023-09-28T05:38:40.730Z,8.03
2023-09-28T05:39:13.942Z,7.27
2023-09-28T05:39:45.912Z,6.63
2023-09-28T05:40:18.153Z,6.47
2023-09-28T05:40:50.107Z,6.50
2023-09-28T05:41:22.393Z,6.23
2023-09-28T05:41:54.949Z,6.60
2023-09-28T05:42:26.993Z,7.03
2023-09-28T05:42:58.924Z,6.40
2023-09-28T05:43:31.179Z,6.33
2023-09-28T05:44:03.348Z,6.30
2023-09-28T05:44:36.195Z,5.70
2023-09-28T05:45:09.222Z,5.87
2023-09-28T05:45:41.246Z,6.10
2023-09-28T05:46:13.153Z,6.63
2023-09-28T05:46:45.073Z,6.97
2023-09-28T05:47:16.996Z,6.10
2023-09-28T05:47:49.621Z,6.07
2023-09-28T05:48:21.572Z,6.50
2023-09-28T05:48:53.692Z,6.50
2023-09-28T05:49:25.608Z,6.17
2023-09-28T05:49:57.567Z,6.03
2023-09-28T05:50:29.532Z,5.80
2023-09-28T05:51:01.643Z,6.53
2023-09-28T05:51:33.622Z,6.73
2023-09-28T05:52:06.641Z,6.77
2023-09-28T05:52:38.851Z,6.43
2023-09-28T05:53:11.579Z,6.80
2023-09-28T05:53:45.310Z,6.37
2023-09-28T05:54:18.253Z,5.90
2023-09-28T05:54:50.965Z,5.53
2023-09-28T05:55:23.914Z,6.37
2023-09-28T05:55:56.638Z,6.17
2023-09-28T05:56:28.596Z,6.03
2023-09-28T05:57:00.587Z,5.97
2023-09-28T05:57:32.810Z,6.17
2023-09-28T05:58:05.446Z,5.90
2023-09-28T05:58:37.428Z,6.20
2023-09-28T05:59:09.461Z,5.70
2023-09-28T05:59:41.477Z,5.57
2023-09-28T06:00:14.812Z,5.80
2023-09-28T06:00:47.188Z,5.73
2023-09-28T06:01:19.350Z,5.77
2023-09-28T06:01:51.347Z,6.33
2023-09-28T06:02:24.386Z,6.57
2023-09-28T06:02:56.528Z,5.73
2023-09-28T06:03:28.870Z,6.73
2023-09-28T06:04:01.036Z,6.27
2023-09-28T06:04:34.394Z,6.10
2023-09-28T06:05:06.867Z,6.80
2023-09-28T06:05:38.767Z,6.53
2023-09-28T06:06:17.716Z,6.27
2023-09-28T06:06:51.913Z,5.53
2023-09-28T06:07:25.361Z,6.23
2023-09-28T06:07:57.408Z,5.93
2023-09-28T06:08:29.462Z,5.27
2023-09-28T06:09:01.551Z,5.83
2023-09-28T06:09:33.525Z,6.07
2023-09-28T06:10:06.320Z,5.93
2023-09-28T06:10:39.407Z,5.87
2023-09-28T06:11:13.337Z,6.00
2023-09-28T06:11:47.176Z,6.23
2023-09-28T06:12:19.158Z,6.40
2023-09-28T06:12:51.051Z,5.77
2023-09-28T06:13:23.876Z,6.23
2023-09-28T06:14:07.643Z,5.53
2023-09-28T06:14:40.542Z,5.60
2023-09-28T06:15:12.670Z,6.07
2023-09-28T06:15:44.613Z,6.27
2023-09-28T06:16:16.972Z,6.67
2023-09-28T06:16:49.858Z,7.80
2023-09-28T06:17:22.037Z,8.67
2023-09-28T06:17:54.115Z,9.77
2023-09-28T06:18:26.086Z,10.17
2023-09-28T06:18:58.078Z,9.43
2023-09-28T06:19:29.974Z,9.27
2023-09-28T06:20:03.287Z,8.90
2023-09-28T06:20:38.002Z,8.87
2023-09-28T06:21:11.824Z,9.13
2023-09-28T06:21:43.838Z,8.43
2023-09-28T06:22:15.758Z,8.37
2023-09-28T06:22:47.698Z,8.57
2023-09-28T06:23:19.935Z,9.07
2023-09-28T06:23:51.911Z,8.70
2023-09-28T06:24:23.969Z,9.23
2023-09-28T06:24:57.041Z,9.07
2023-09-28T06:25:29.149Z,8.73
2023-09-28T06:26:01.582Z,8.97
2023-09-28T06:26:42.903Z,8.53
2023-09-28T06:27:15.452Z,9.33
2023-09-28T06:27:48.836Z,8.47
2023-09-28T06:28:22.472Z,8.67
2023-09-28T06:28:55.431Z,7.60
2023-09-28T06:29:28.108Z,8.53
2023-09-28T06:30:00.108Z,8.40
2023-09-28T06:30:32.071Z,8.70
2023-09-28T06:31:04.011Z,8.83
2023-09-28T06:31:36.072Z,9.50
2023-09-28T06:32:08.134Z,8.97
2023-09-28T06:32:40.174Z,8.60
2023-09-28T06:33:12.134Z,9.33
2023-09-28T06:33:44.224Z,8.03
2023-09-28T06:34:16.161Z,8.10
2023-09-28T06:34:48.239Z,8.53
2023-09-28T06:35:20.183Z,8.67
2023-09-28T06:35:52.529Z,8.50
2023-09-28T06:36:38.494Z,8.50
2023-09-28T06:37:13.501Z,8.73
2023-09-28T06:37:45.406Z,8.37
2023-09-28T06:38:17.411Z,7.77
2023-09-28T06:38:49.370Z,7.23
2023-09-28T06:39:21.304Z,8.43
2023-09-28T06:39:53.158Z,9.00
2023-09-28T06:40:25.462Z,9.70
2023-09-28T06:40:57.518Z,9.33
2023-09-28T06:41:29.660Z,9.13
2023-09-28T06:42:16.639Z,9.23
2023-09-28T06:42:52.656Z,8.13
2023-09-28T06:43:24.549Z,7.67
2023-09-28T06:43:56.522Z,6.60
2023-09-28T06:44:28.539Z,6.50
2023-09-28T06:45:00.444Z,6.37
2023-09-28T06:45:32.564Z,6.50
2023-09-28T06:46:05.155Z,6.70
2023-09-28T06:46:38.133Z,6.73
2023-09-28T06:47:10.126Z,5.87
2023-09-28T06:47:55.645Z,6.00
2023-09-28T06:48:32.064Z,5.97
2023-09-28T06:49:06.782Z,6.13
2023-09-28T06:49:38.729Z,5.63
2023-09-28T06:50:12.311Z,6.17
2023-09-28T06:50:44.316Z,6.10
2023-09-28T06:51:17.209Z,6.43
2023-09-28T06:51:50.350Z,6.57
2023-09-28T06:52:22.867Z,5.87
2023-09-28T06:52:55.248Z,5.30
2023-09-28T06:53:27.651Z,5.83
2023-09-28T06:54:01.984Z,5.63
2023-09-28T06:54:34.101Z,5.03
2023-09-28T06:55:06.646Z,6.33
2023-09-28T06:55:38.607Z,6.00
2023-09-28T06:56:14.536Z,6.03
2023-09-28T06:56:49.567Z,5.70
2023-09-28T06:57:21.896Z,5.50
2023-09-28T06:57:53.918Z,6.07
2023-09-28T06:58:26.273Z,5.60
2023-09-28T06:58:58.800Z,5.37
2023-09-28T06:59:30.848Z,5.27
2023-09-28T07:00:10.153Z,5.90
2023-09-28T07:01:06.780Z,5.33
2023-09-28T07:01:39.330Z,5.30
2023-09-28T07:02:11.616Z,5.20
2023-09-28T07:02:48.478Z,5.63
2023-09-28T07:03:21.357Z,5.50
2023-09-28T07:03:54.598Z,5.83
2023-09-28T07:04:26.569Z,6.07
2023-09-28T07:04:58.539Z,6.33
2023-09-28T07:05:30.495Z,6.00
2023-09-28T07:06:02.491Z,5.93
2023-09-28T07:06:37.363Z,5.70
2023-09-28T07:07:11.904Z,5.73
2023-09-28T07:07:46.431Z,5.70
2023-09-28T07:08:18.714Z,5.00
2023-09-28T07:08:50.663Z,5.93
2023-09-28T07:09:22.540Z,5.83
2023-09-28T07:09:57.457Z,5.20
2023-09-28T07:10:29.557Z,5.20
2023-09-28T07:11:02.625Z,5.23
2023-09-28T07:11:35.648Z,4.93
2023-09-28T07:12:07.809Z,5.43
2023-09-28T07:12:40.219Z,5.90
2023-09-28T07:13:12.612Z,5.23
2023-09-28T07:13:45.566Z,5.93
2023-09-28T07:14:17.586Z,5.80
2023-09-28T07:14:49.738Z,5.60
2023-09-28T07:15:23.633Z,5.80
2023-09-28T07:15:58.850Z,6.27
2023-09-28T07:16:31.475Z,5.83
2023-09-28T07:17:03.566Z,5.37
2023-09-28T07:17:36.239Z,5.47
2023-09-28T07:18:08.385Z,6.17